sensor_id;sensor_type;location;lat;lon;timestamp;P1;durP1;ratioP1;P2;durP2;ratioP2
25049;SDS011;13046;49.814;9.918;2023-04-24T00:01:49;3.17;;;2.03;;
25049;SDS011;13046;49.814;9.918;2023-04-24T00:04:16;2.45;;;1.50;;
25049;SDS011;13046;49.814;9.918;2023-04-24T00:06:43;2.03;;;1.40;;
25049;SDS011;13046;49.814;9.918;2023-04-24T00:09:09;3.60;;;1.80;;
25049;SDS011;13046;49.814;9.918;2023-04-24T00:11:36;1.85;;;1.63;;
25049;SDS011;13046;49.814;9.918;2023-04-24T00:14:02;3.03;;;1.45;;
25049;SDS011;13046;49.814;9.918;2023-04-24T00:16:28;2.47;;;1.58;;
25049;SDS011;13046;49.814;9.918;2023-04-24T00:18:54;4.20;;;1.70;;
25049;SDS011;13046;49.814;9.918;2023-04-24T00:21:20;2.05;;;1.35;;
25049;SDS011;13046;49.814;9.918;2023-04-24T00:23:47;2.17;;;1.45;;
25049;SDS011;13046;49.814;9.918;2023-04-24T00:26:13;5.18;;;1.95;;
25049;SDS011;13046;49.814;9.918;2023-04-24T00:28:39;2.90;;;1.45;;
25049;SDS011;13046;49.814;9.918;2023-04-24T00:31:05;1.92;;;1.52;;
25049;SDS011;13046;49.814;9.918;2023-04-24T00:33:31;3.50;;;1.70;;
25049;SDS011;13046;49.814;9.918;2023-04-24T00:35:57;4.22;;;2.03;;
25049;SDS011;13046;49.814;9.918;2023-04-24T00:38:23;1.85;;;1.52;;
25049;SDS011;13046;49.814;9.918;2023-04-24T00:40:49;3.10;;;1.50;;
25049;SDS011;13046;49.814;9.918;2023-04-24T00:43:16;3.25;;;1.75;;
25049;SDS011;13046;49.814;9.918;2023-04-24T00:45:42;2.13;;;1.10;;
25049;SDS011;13046;49.814;9.918;2023-04-24T00:48:08;2.10;;;1.90;;
25049;SDS011;13046;49.814;9.918;2023-04-24T00:50:38;12.18;;;1.92;;
25049;SDS011;13046;49.814;9.918;2023-04-24T00:53:04;2.78;;;1.67;;
25049;SDS011;13046;49.814;9.918;2023-04-24T00:55:30;1.80;;;1.35;;
25049;SDS011;13046;49.814;9.918;2023-04-24T00:57:56;3.55;;;1.58;;
25049;SDS011;13046;49.814;9.918;2023-04-24T01:00:22;2.35;;;1.30;;
25049;SDS011;13046;49.814;9.918;2023-04-24T01:02:49;2.03;;;1.45;;
25049;SDS011;13046;49.814;9.918;2023-04-24T01:05:16;4.22;;;1.58;;
25049;SDS011;13046;49.814;9.918;2023-04-24T01:07:44;10.70;;;4.43;;
25049;SDS011;13046;49.814;9.918;2023-04-24T01:10:13;5.82;;;1.80;;
25049;SDS011;13046;49.814;9.918;2023-04-24T01:12:39;1.40;;;1.30;;
25049;SDS011;13046;49.814;9.918;2023-04-24T01:15:05;2.20;;;1.35;;
25049;SDS011;13046;49.814;9.918;2023-04-24T01:17:33;1.55;;;1.33;;
25049;SDS011;13046;49.814;9.918;2023-04-24T01:20:00;1.98;;;1.40;;
25049;SDS011;13046;49.814;9.918;2023-04-24T01:22:29;1.92;;;1.05;;
25049;SDS011;13046;49.814;9.918;2023-04-24T01:24:55;1.92;;;1.30;;
25049;SDS011;13046;49.814;9.918;2023-04-24T01:27:22;1.40;;;1.30;;
25049;SDS011;13046;49.814;9.918;2023-04-24T01:29:48;1.20;;;1.10;;
25049;SDS011;13046;49.814;9.918;2023-04-24T01:32:16;2.33;;;1.25;;
25049;SDS011;13046;49.814;9.918;2023-04-24T01:34:42;1.80;;;1.23;;
25049;SDS011;13046;49.814;9.918;2023-04-24T01:37:08;2.45;;;1.20;;
25049;SDS011;13046;49.814;9.918;2023-04-24T01:39:35;3.28;;;1.50;;
25049;SDS011;13046;49.814;9.918;2023-04-24T01:42:01;2.03;;;1.55;;
25049;SDS011;13046;49.814;9.918;2023-04-24T01:44:27;3.00;;;1.48;;
25049;SDS011;13046;49.814;9.918;2023-04-24T01:46:54;1.73;;;1.20;;
25049;SDS011;13046;49.814;9.918;2023-04-24T01:49:20;2.22;;;1.55;;
25049;SDS011;13046;49.814;9.918;2023-04-24T01:51:46;1.67;;;1.13;;
25049;SDS011;13046;49.814;9.918;2023-04-24T01:54:12;3.50;;;1.13;;
25049;SDS011;13046;49.814;9.918;2023-04-24T01:56:42;1.80;;;1.23;;
25049;SDS011;13046;49.814;9.918;2023-04-24T01:59:09;2.45;;;1.15;;
25049;SDS011;13046;49.814;9.918;2023-04-24T02:01:35;1.77;;;1.20;;
25049;SDS011;13046;49.814;9.918;2023-04-24T02:04:02;1.60;;;1.50;;
25049;SDS011;13046;49.814;9.918;2023-04-24T02:06:28;1.52;;;1.42;;
25049;SDS011;13046;49.814;9.918;2023-04-24T02:08:56;1.33;;;1.23;;
25049;SDS011;13046;49.814;9.918;2023-04-24T02:11:22;2.22;;;1.50;;
25049;SDS011;13046;49.814;9.918;2023-04-24T02:13:50;2.10;;;1.45;;
25049;SDS011;13046;49.814;9.918;2023-04-24T02:16:16;2.55;;;1.23;;
25049;SDS011;13046;49.814;9.918;2023-04-24T02:18:42;3.45;;;1.55;;
25049;SDS011;13046;49.814;9.918;2023-04-24T02:21:10;2.42;;;1.40;;
25049;SDS011;13046;49.814;9.918;2023-04-24T02:23:36;2.75;;;1.50;;
25049;SDS011;13046;49.814;9.918;2023-04-24T02:26:02;2.58;;;1.50;;
25049;SDS011;13046;49.814;9.918;2023-04-24T02:28:28;1.27;;;1.17;;
25049;SDS011;13046;49.814;9.918;2023-04-24T02:30:54;1.20;;;1.10;;
25049;SDS011;13046;49.814;9.918;2023-04-24T02:33:21;1.75;;;1.20;;
25049;SDS011;13046;49.814;9.918;2023-04-24T02:35:47;3.13;;;1.25;;
25049;SDS011;13046;49.814;9.918;2023-04-24T02:38:13;3.10;;;1.48;;
25049;SDS011;13046;49.814;9.918;2023-04-24T02:40:42;2.25;;;1.40;;
25049;SDS011;13046;49.814;9.918;2023-04-24T02:43:09;1.75;;;1.33;;
25049;SDS011;13046;49.814;9.918;2023-04-24T02:45:36;1.60;;;1.40;;
25049;SDS011;13046;49.814;9.918;2023-04-24T02:48:03;2.30;;;2.10;;
25049;SDS011;13046;49.814;9.918;2023-04-24T02:50:29;2.83;;;1.35;;
25049;SDS011;13046;49.814;9.918;2023-04-24T02:52:56;2.30;;;1.10;;
25049;SDS011;13046;49.814;9.918;2023-04-24T02:55:22;2.58;;;1.42;;
25049;SDS011;13046;49.814;9.918;2023-04-24T02:57:48;1.42;;;1.10;;
25049;SDS011;13046;49.814;9.918;2023-04-24T03:00:15;1.60;;;1.50;;
25049;SDS011;13046;49.814;9.918;2023-04-24T03:02:41;3.70;;;1.23;;
25049;SDS011;13046;49.814;9.918;2023-04-24T03:05:07;2.28;;;2.17;;
25049;SDS011;13046;49.814;9.918;2023-04-24T03:07:34;2.42;;;1.80;;
25049;SDS011;13046;49.814;9.918;2023-04-24T03:10:00;2.50;;;2.13;;
25049;SDS011;13046;49.814;9.918;2023-04-24T03:12:26;3.30;;;1.83;;
25049;SDS011;13046;49.814;9.918;2023-04-24T03:14:52;3.60;;;1.45;;
25049;SDS011;13046;49.814;9.918;2023-04-24T03:17:18;14.20;;;4.15;;
25049;SDS011;13046;49.814;9.918;2023-04-24T03:19:44;3.03;;;1.00;;
25049;SDS011;13046;49.814;9.918;2023-04-24T03:22:11;3.33;;;1.42;;
25049;SDS011;13046;49.814;9.918;2023-04-24T03:24:38;2.28;;;1.63;;
25049;SDS011;13046;49.814;9.918;2023-04-24T03:27:05;1.17;;;1.05;;
25049;SDS011;13046;49.814;9.918;2023-04-24T03:29:54;2.03;;;1.30;;
25049;SDS011;13046;49.814;9.918;2023-04-24T03:32:24;2.28;;;1.13;;
25049;SDS011;13046;49.814;9.918;2023-04-24T03:34:51;3.90;;;1.50;;
25049;SDS011;13046;49.814;9.918;2023-04-24T03:37:17;1.27;;;1.15;;
25049;SDS011;13046;49.814;9.918;2023-04-24T03:39:51;2.65;;;1.45;;
25049;SDS011;13046;49.814;9.918;2023-04-24T03:42:22;2.58;;;1.38;;
25049;SDS011;13046;49.814;9.918;2023-04-24T03:44:51;2.42;;;1.25;;
25049;SDS011;13046;49.814;9.918;2023-04-24T03:47:21;3.47;;;1.73;;
25049;SDS011;13046;49.814;9.918;2023-04-24T03:49:48;1.27;;;1.17;;
25049;SDS011;13046;49.814;9.918;2023-04-24T03:52:14;1.92;;;1.17;;
25049;SDS011;13046;49.814;9.918;2023-04-24T03:54:40;2.10;;;1.15;;
25049;SDS011;13046;49.814;9.918;2023-04-24T03:57:06;2.05;;;1.60;;
25049;SDS011;13046;49.814;9.918;2023-04-24T03:59:35;3.15;;;2.15;;
25049;SDS011;13046;49.814;9.918;2023-04-24T04:02:19;2.13;;;2.00;;
25049;SDS011;13046;49.814;9.918;2023-04-24T04:04:45;2.30;;;1.50;;
25049;SDS011;13046;49.814;9.918;2023-04-24T04:07:11;1.90;;;1.27;;
25049;SDS011;13046;49.814;9.918;2023-04-24T04:09:38;2.22;;;1.52;;
25049;SDS011;13046;49.814;9.918;2023-04-24T04:12:04;2.58;;;1.20;;
25049;SDS011;13046;49.814;9.918;2023-04-24T04:14:32;1.70;;;1.50;;
25049;SDS011;13046;49.814;9.918;2023-04-24T04:16:58;2.40;;;1.30;;
25049;SDS011;13046;49.814;9.918;2023-04-24T04:19:25;2.30;;;1.23;;
25049;SDS011;13046;49.814;9.918;2023-04-24T04:21:51;3.20;;;1.75;;
25049;SDS011;13046;49.814;9.918;2023-04-24T04:24:33;1.52;;;1.42;;
25049;SDS011;13046;49.814;9.918;2023-04-24T04:27:03;1.50;;;1.40;;
25049;SDS011;13046;49.814;9.918;2023-04-24T04:29:35;3.35;;;1.60;;
25049;SDS011;13046;49.814;9.918;2023-04-24T04:32:04;4.38;;;1.77;;
25049;SDS011;13046;49.814;9.918;2023-04-24T04:34:31;4.65;;;1.42;;
25049;SDS011;13046;49.814;9.918;2023-04-24T04:36:58;4.97;;;1.63;;
25049;SDS011;13046;49.814;9.918;2023-04-24T04:39:49;1.88;;;1.60;;
25049;SDS011;13046;49.814;9.918;2023-04-24T04:42:21;2.17;;;1.35;;
25049;SDS011;13046;49.814;9.918;2023-04-24T04:44:48;4.13;;;2.13;;
25049;SDS011;13046;49.814;9.918;2023-04-24T04:47:18;3.97;;;1.83;;
25049;SDS011;13046;49.814;9.918;2023-04-24T04:49:50;2.20;;;1.58;;
25049;SDS011;13046;49.814;9.918;2023-04-24T04:52:23;1.23;;;0.90;;
25049;SDS011;13046;49.814;9.918;2023-04-24T04:54:57;5.15;;;1.45;;
25049;SDS011;13046;49.814;9.918;2023-04-24T04:57:31;2.55;;;2.35;;
25049;SDS011;13046;49.814;9.918;2023-04-24T04:59:57;4.28;;;1.65;;
25049;SDS011;13046;49.814;9.918;2023-04-24T05:02:36;1.85;;;1.70;;
25049;SDS011;13046;49.814;9.918;2023-04-24T05:05:02;2.53;;;1.65;;
25049;SDS011;13046;49.814;9.918;2023-04-24T05:07:28;2.65;;;1.70;;
25049;SDS011;13046;49.814;9.918;2023-04-24T05:09:54;2.75;;;1.88;;
25049;SDS011;13046;49.814;9.918;2023-04-24T05:12:20;6.03;;;2.28;;
25049;SDS011;13046;49.814;9.918;2023-04-24T05:14:50;2.42;;;1.92;;
25049;SDS011;13046;49.814;9.918;2023-04-24T05:17:16;3.00;;;2.13;;
25049;SDS011;13046;49.814;9.918;2023-04-24T05:19:42;2.80;;;2.20;;
25049;SDS011;13046;49.814;9.918;2023-04-24T05:22:08;2.35;;;2.17;;
25049;SDS011;13046;49.814;9.918;2023-04-24T05:24:40;2.50;;;2.27;;
25049;SDS011;13046;49.814;9.918;2023-04-24T05:27:26;13.68;;;2.53;;
25049;SDS011;13046;49.814;9.918;2023-04-24T05:29:52;2.30;;;2.20;;
25049;SDS011;13046;49.814;9.918;2023-04-24T05:32:18;3.20;;;2.90;;
25049;SDS011;13046;49.814;9.918;2023-04-24T05:34:44;2.58;;;2.38;;
25049;SDS011;13046;49.814;9.918;2023-04-24T05:37:10;4.30;;;3.90;;
25049;SDS011;13046;49.814;9.918;2023-04-24T05:39:36;4.55;;;3.58;;
25049;SDS011;13046;49.814;9.918;2023-04-24T05:42:02;7.63;;;3.60;;
25049;SDS011;13046;49.814;9.918;2023-04-24T05:44:29;3.80;;;2.40;;
25049;SDS011;13046;49.814;9.918;2023-04-24T05:46:55;2.60;;;2.40;;
25049;SDS011;13046;49.814;9.918;2023-04-24T05:49:22;4.43;;;2.75;;
25049;SDS011;13046;49.814;9.918;2023-04-24T05:51:48;3.30;;;2.17;;
25049;SDS011;13046;49.814;9.918;2023-04-24T05:54:16;2.78;;;2.25;;
25049;SDS011;13046;49.814;9.918;2023-04-24T05:56:42;3.75;;;2.42;;
25049;SDS011;13046;49.814;9.918;2023-04-24T05:59:09;4.63;;;2.38;;
25049;SDS011;13046;49.814;9.918;2023-04-24T06:01:35;3.22;;;2.92;;
25049;SDS011;13046;49.814;9.918;2023-04-24T06:04:08;4.60;;;2.60;;
25049;SDS011;13046;49.814;9.918;2023-04-24T06:06:34;2.50;;;2.30;;
25049;SDS011;13046;49.814;9.918;2023-04-24T06:09:01;2.55;;;2.35;;
25049;SDS011;13046;49.814;9.918;2023-04-24T06:11:28;4.57;;;2.88;;
25049;SDS011;13046;49.814;9.918;2023-04-24T06:13:55;5.55;;;2.90;;
25049;SDS011;13046;49.814;9.918;2023-04-24T06:16:36;3.85;;;2.65;;
25049;SDS011;13046;49.814;9.918;2023-04-24T06:19:10;4.60;;;2.88;;
25049;SDS011;13046;49.814;9.918;2023-04-24T06:21:36;3.65;;;3.35;;
25049;SDS011;13046;49.814;9.918;2023-04-24T06:24:04;3.58;;;2.80;;
25049;SDS011;13046;49.814;9.918;2023-04-24T06:26:30;3.88;;;2.97;;
25049;SDS011;13046;49.814;9.918;2023-04-24T06:28:56;4.30;;;2.75;;
25049;SDS011;13046;49.814;9.918;2023-04-24T06:31:24;3.55;;;3.22;;
25049;SDS011;13046;49.814;9.918;2023-04-24T06:33:50;3.47;;;3.20;;
25049;SDS011;13046;49.814;9.918;2023-04-24T06:36:16;4.95;;;4.18;;
25049;SDS011;13046;49.814;9.918;2023-04-24T06:38:42;2.83;;;2.63;;
25049;SDS011;13046;49.814;9.918;2023-04-24T06:41:09;3.53;;;3.03;;
25049;SDS011;13046;49.814;9.918;2023-04-24T06:43:35;5.38;;;3.10;;
25049;SDS011;13046;49.814;9.918;2023-04-24T06:46:01;3.38;;;3.05;;
25049;SDS011;13046;49.814;9.918;2023-04-24T06:48:28;4.57;;;3.83;;
25049;SDS011;13046;49.814;9.918;2023-04-24T06:50:54;2.92;;;2.63;;
25049;SDS011;13046;49.814;9.918;2023-04-24T06:53:20;4.65;;;3.25;;
25049;SDS011;13046;49.814;9.918;2023-04-24T06:55:46;5.88;;;3.15;;
25049;SDS011;13046;49.814;9.918;2023-04-24T06:58:12;3.92;;;3.60;;
25049;SDS011;13046;49.814;9.918;2023-04-24T07:00:38;3.75;;;3.40;;
25049;SDS011;13046;49.814;9.918;2023-04-24T07:03:04;7.68;;;3.95;;
25049;SDS011;13046;49.814;9.918;2023-04-24T07:05:31;4.68;;;3.30;;
25049;SDS011;13046;49.814;9.918;2023-04-24T07:07:58;4.15;;;3.22;;
25049;SDS011;13046;49.814;9.918;2023-04-24T07:10:25;4.03;;;3.35;;
25049;SDS011;13046;49.814;9.918;2023-04-24T07:12:54;5.63;;;3.42;;
25049;SDS011;13046;49.814;9.918;2023-04-24T07:15:21;4.10;;;3.70;;
25049;SDS011;13046;49.814;9.918;2023-04-24T07:17:47;4.60;;;3.35;;
25049;SDS011;13046;49.814;9.918;2023-04-24T07:20:13;3.90;;;3.47;;
25049;SDS011;13046;49.814;9.918;2023-04-24T07:22:39;3.63;;;3.33;;
25049;SDS011;13046;49.814;9.918;2023-04-24T07:25:06;3.47;;;3.17;;
25049;SDS011;13046;49.814;9.918;2023-04-24T07:27:33;5.03;;;3.60;;
25049;SDS011;13046;49.814;9.918;2023-04-24T07:29:59;3.90;;;3.50;;
25049;SDS011;13046;49.814;9.918;2023-04-24T07:32:26;9.25;;;4.32;;
25049;SDS011;13046;49.814;9.918;2023-04-24T07:34:52;3.63;;;3.22;;
25049;SDS011;13046;49.814;9.918;2023-04-24T07:37:18;4.05;;;3.67;;
25049;SDS011;13046;49.814;9.918;2023-04-24T07:39:45;4.78;;;3.70;;
25049;SDS011;13046;49.814;9.918;2023-04-24T07:42:11;5.45;;;3.67;;
25049;SDS011;13046;49.814;9.918;2023-04-24T07:44:36;3.65;;;3.35;;
25049;SDS011;13046;49.814;9.918;2023-04-24T07:47:02;5.88;;;4.28;;
25049;SDS011;13046;49.814;9.918;2023-04-24T07:49:29;5.05;;;3.60;;
25049;SDS011;13046;49.814;9.918;2023-04-24T07:51:54;4.35;;;3.95;;
25049;SDS011;13046;49.814;9.918;2023-04-24T07:54:20;5.10;;;3.60;;
25049;SDS011;13046;49.814;9.918;2023-04-24T07:56:46;4.57;;;3.85;;
25049;SDS011;13046;49.814;9.918;2023-04-24T07:59:13;4.45;;;3.95;;
25049;SDS011;13046;49.814;9.918;2023-04-24T08:01:38;4.78;;;4.30;;
25049;SDS011;13046;49.814;9.918;2023-04-24T08:04:04;4.15;;;3.75;;
25049;SDS011;13046;49.814;9.918;2023-04-24T08:06:30;5.20;;;4.20;;
25049;SDS011;13046;49.814;9.918;2023-04-24T08:08:57;6.68;;;3.63;;
25049;SDS011;13046;49.814;9.918;2023-04-24T08:11:23;4.35;;;3.95;;
25049;SDS011;13046;49.814;9.918;2023-04-24T08:13:49;4.78;;;4.38;;
25049;SDS011;13046;49.814;9.918;2023-04-24T08:16:15;4.50;;;4.10;;
25049;SDS011;13046;49.814;9.918;2023-04-24T08:18:41;4.72;;;4.32;;
25049;SDS011;13046;49.814;9.918;2023-04-24T08:21:06;5.20;;;3.83;;
25049;SDS011;13046;49.814;9.918;2023-04-24T08:23:32;5.45;;;3.97;;
25049;SDS011;13046;49.814;9.918;2023-04-24T08:25:58;4.88;;;4.28;;
25049;SDS011;13046;49.814;9.918;2023-04-24T08:28:23;5.75;;;4.43;;
25049;SDS011;13046;49.814;9.918;2023-04-24T08:30:49;4.57;;;3.97;;
25049;SDS011;13046;49.814;9.918;2023-04-24T08:33:19;5.50;;;4.40;;
25049;SDS011;13046;49.814;9.918;2023-04-24T08:35:46;6.05;;;3.92;;
25049;SDS011;13046;49.814;9.918;2023-04-24T08:38:12;4.22;;;3.83;;
25049;SDS011;13046;49.814;9.918;2023-04-24T08:40:37;4.78;;;4.32;;
25049;SDS011;13046;49.814;9.918;2023-04-24T08:43:04;4.70;;;4.30;;
25049;SDS011;13046;49.814;9.918;2023-04-24T08:45:30;8.45;;;4.53;;
25049;SDS011;13046;49.814;9.918;2023-04-24T08:47:57;4.13;;;3.83;;
25049;SDS011;13046;49.814;9.918;2023-04-24T08:50:24;4.45;;;4.05;;
25049;SDS011;13046;49.814;9.918;2023-04-24T08:52:50;4.00;;;3.70;;
25049;SDS011;13046;49.814;9.918;2023-04-24T08:55:19;4.20;;;3.85;;
25049;SDS011;13046;49.814;9.918;2023-04-24T08:57:46;4.50;;;3.80;;
25049;SDS011;13046;49.814;9.918;2023-04-24T09:00:16;6.30;;;3.95;;
25049;SDS011;13046;49.814;9.918;2023-04-24T09:02:43;4.18;;;3.72;;
25049;SDS011;13046;49.814;9.918;2023-04-24T09:05:12;3.72;;;3.30;;
25049;SDS011;13046;49.814;9.918;2023-04-24T09:07:39;3.80;;;3.13;;
25049;SDS011;13046;49.814;9.918;2023-04-24T09:10:06;2.60;;;2.40;;
25049;SDS011;13046;49.814;9.918;2023-04-24T09:12:33;3.97;;;2.97;;
25049;SDS011;13046;49.814;9.918;2023-04-24T09:15:00;2.72;;;2.53;;
25049;SDS011;13046;49.814;9.918;2023-04-24T09:17:28;4.32;;;2.80;;
25049;SDS011;13046;49.814;9.918;2023-04-24T09:19:55;7.38;;;2.92;;
25049;SDS011;13046;49.814;9.918;2023-04-24T09:22:21;2.65;;;2.25;;
25049;SDS011;13046;49.814;9.918;2023-04-24T09:24:46;2.72;;;2.28;;
25049;SDS011;13046;49.814;9.918;2023-04-24T09:27:13;2.53;;;2.33;;
25049;SDS011;13046;49.814;9.918;2023-04-24T09:29:52;3.10;;;2.30;;
25049;SDS011;13046;49.814;9.918;2023-04-24T09:32:20;2.60;;;2.15;;
25049;SDS011;13046;49.814;9.918;2023-04-24T09:34:47;2.25;;;2.15;;
25049;SDS011;13046;49.814;9.918;2023-04-24T09:37:29;2.67;;;2.33;;
25049;SDS011;13046;49.814;9.918;2023-04-24T09:42:59;2.58;;;2.17;;
25049;SDS011;13046;49.814;9.918;2023-04-24T09:45:28;3.33;;;2.50;;
25049;SDS011;13046;49.814;9.918;2023-04-24T09:47:59;2.42;;;2.15;;
25049;SDS011;13046;49.814;9.918;2023-04-24T09:50:25;2.80;;;1.98;;
25049;SDS011;13046;49.814;9.918;2023-04-24T09:53:02;2.53;;;2.33;;
25049;SDS011;13046;49.814;9.918;2023-04-24T09:55:29;2.40;;;2.20;;
25049;SDS011;13046;49.814;9.918;2023-04-24T09:57:58;2.47;;;2.20;;
25049;SDS011;13046;49.814;9.918;2023-04-24T10:00:29;2.85;;;2.40;;
25049;SDS011;13046;49.814;9.918;2023-04-24T10:03:00;2.47;;;2.28;;
25049;SDS011;13046;49.814;9.918;2023-04-24T10:05:28;2.67;;;2.45;;
25049;SDS011;13046;49.814;9.918;2023-04-24T10:08:01;3.15;;;2.95;;
25049;SDS011;13046;49.814;9.918;2023-04-24T10:10:31;3.38;;;2.85;;
25049;SDS011;13046;49.814;9.918;2023-04-24T10:12:58;2.92;;;2.72;;
25049;SDS011;13046;49.814;9.918;2023-04-24T10:15:26;5.15;;;3.35;;
25049;SDS011;13046;49.814;9.918;2023-04-24T10:17:52;2.92;;;2.70;;
25049;SDS011;13046;49.814;9.918;2023-04-24T10:20:22;2.42;;;2.33;;
25049;SDS011;13046;49.814;9.918;2023-04-24T10:22:50;3.40;;;3.10;;
25049;SDS011;13046;49.814;9.918;2023-04-24T10:25:18;2.75;;;2.55;;
25049;SDS011;13046;49.814;9.918;2023-04-24T10:27:44;3.40;;;2.95;;
25049;SDS011;13046;49.814;9.918;2023-04-24T10:30:12;5.68;;;2.80;;
25049;SDS011;13046;49.814;9.918;2023-04-24T10:32:39;3.70;;;3.40;;
25049;SDS011;13046;49.814;9.918;2023-04-24T10:35:08;4.43;;;3.38;;
25049;SDS011;13046;49.814;9.918;2023-04-24T10:37:36;5.57;;;3.58;;
25049;SDS011;13046;49.814;9.918;2023-04-24T10:40:05;4.53;;;2.95;;
25049;SDS011;13046;49.814;9.918;2023-04-24T10:42:33;3.38;;;3.08;;
25049;SDS011;13046;49.814;9.918;2023-04-24T10:44:59;3.47;;;3.17;;
25049;SDS011;13046;49.814;9.918;2023-04-24T10:47:39;4.53;;;3.63;;
25049;SDS011;13046;49.814;9.918;2023-04-24T10:50:09;3.33;;;3.13;;
25049;SDS011;13046;49.814;9.918;2023-04-24T10:52:49;5.28;;;3.90;;
25049;SDS011;13046;49.814;9.918;2023-04-24T10:58:05;4.18;;;3.83;;
25049;SDS011;13046;49.814;9.918;2023-04-24T11:00:31;7.63;;;6.93;;
25049;SDS011;13046;49.814;9.918;2023-04-24T11:02:57;7.03;;;6.30;;
25049;SDS011;13046;49.814;9.918;2023-04-24T11:05:24;4.47;;;4.07;;
25049;SDS011;13046;49.814;9.918;2023-04-24T11:08:23;5.13;;;4.72;;
25049;SDS011;13046;49.814;9.918;2023-04-24T11:11:00;4.18;;;3.55;;
25049;SDS011;13046;49.814;9.918;2023-04-24T11:13:27;4.07;;;3.78;;
25049;SDS011;13046;49.814;9.918;2023-04-24T11:16:15;4.38;;;3.25;;
25049;SDS011;13046;49.814;9.918;2023-04-24T11:18:42;4.05;;;3.65;;
25049;SDS011;13046;49.814;9.918;2023-04-24T11:21:18;4.13;;;3.53;;
25049;SDS011;13046;49.814;9.918;2023-04-24T11:23:45;3.33;;;3.13;;
25049;SDS011;13046;49.814;9.918;2023-04-24T11:28:43;6.18;;;3.60;;
25049;SDS011;13046;49.814;9.918;2023-04-24T11:33:55;3.30;;;3.00;;
25049;SDS011;13046;49.814;9.918;2023-04-24T11:36:22;3.58;;;3.15;;
25049;SDS011;13046;49.814;9.918;2023-04-24T11:38:48;3.40;;;3.13;;
25049;SDS011;13046;49.814;9.918;2023-04-24T11:41:14;3.33;;;3.03;;
25049;SDS011;13046;49.814;9.918;2023-04-24T11:43:40;3.85;;;2.65;;
25049;SDS011;13046;49.814;9.918;2023-04-24T11:46:06;3.65;;;3.35;;
25049;SDS011;13046;49.814;9.918;2023-04-24T11:48:35;4.32;;;2.90;;
25049;SDS011;13046;49.814;9.918;2023-04-24T11:51:04;3.35;;;2.95;;
25049;SDS011;13046;49.814;9.918;2023-04-24T11:53:31;4.75;;;2.90;;
25049;SDS011;13046;49.814;9.918;2023-04-24T11:55:56;2.60;;;2.40;;
25049;SDS011;13046;49.814;9.918;2023-04-24T11:58:22;4.15;;;2.83;;
25049;SDS011;13046;49.814;9.918;2023-04-24T12:00:55;3.58;;;2.60;;
25049;SDS011;13046;49.814;9.918;2023-04-24T12:03:21;2.80;;;2.60;;
25049;SDS011;13046;49.814;9.918;2023-04-24T12:05:47;2.25;;;2.05;;
25049;SDS011;13046;49.814;9.918;2023-04-24T12:08:26;2.72;;;2.28;;
25049;SDS011;13046;49.814;9.918;2023-04-24T12:10:52;3.85;;;2.90;;
25049;SDS011;13046;49.814;9.918;2023-04-24T12:13:18;6.47;;;4.15;;
25049;SDS011;13046;49.814;9.918;2023-04-24T12:15:44;2.63;;;2.15;;
25049;SDS011;13046;49.814;9.918;2023-04-24T12:18:13;2.83;;;2.58;;
25049;SDS011;13046;49.814;9.918;2023-04-24T12:20:41;3.25;;;2.80;;
25049;SDS011;13046;49.814;9.918;2023-04-24T12:23:07;2.35;;;2.15;;
25049;SDS011;13046;49.814;9.918;2023-04-24T12:25:33;2.13;;;1.92;;
25049;SDS011;13046;49.814;9.918;2023-04-24T12:30:28;4.32;;;2.05;;
25049;SDS011;13046;49.814;9.918;2023-04-24T12:32:56;3.78;;;2.03;;
25049;SDS011;13046;49.814;9.918;2023-04-24T12:35:23;2.65;;;2.10;;
25049;SDS011;13046;49.814;9.918;2023-04-24T12:37:50;2.35;;;2.15;;
25049;SDS011;13046;49.814;9.918;2023-04-24T12:40:16;2.40;;;2.20;;
25049;SDS011;13046;49.814;9.918;2023-04-24T12:42:50;2.00;;;1.90;;
25049;SDS011;13046;49.814;9.918;2023-04-24T12:45:17;2.20;;;2.00;;
25049;SDS011;13046;49.814;9.918;2023-04-24T12:47:44;2.42;;;2.22;;
25049;SDS011;13046;49.814;9.918;2023-04-24T12:50:12;2.53;;;2.33;;
25049;SDS011;13046;49.814;9.918;2023-04-24T12:52:39;2.58;;;2.20;;
25049;SDS011;13046;49.814;9.918;2023-04-24T12:55:05;3.25;;;2.40;;
25049;SDS011;13046;49.814;9.918;2023-04-24T12:57:35;2.35;;;2.15;;
25049;SDS011;13046;49.814;9.918;2023-04-24T13:00:02;3.63;;;2.20;;
25049;SDS011;13046;49.814;9.918;2023-04-24T13:02:29;4.97;;;3.50;;
25049;SDS011;13046;49.814;9.918;2023-04-24T13:04:56;3.83;;;3.13;;
25049;SDS011;13046;49.814;9.918;2023-04-24T13:07:23;2.85;;;2.65;;
25049;SDS011;13046;49.814;9.918;2023-04-24T13:09:51;2.35;;;2.15;;
25049;SDS011;13046;49.814;9.918;2023-04-24T13:12:17;2.75;;;2.55;;
25049;SDS011;13046;49.814;9.918;2023-04-24T13:14:43;5.35;;;3.22;;
25049;SDS011;13046;49.814;9.918;2023-04-24T13:17:08;4.10;;;3.70;;
25049;SDS011;13046;49.814;9.918;2023-04-24T13:19:39;3.25;;;2.88;;
25049;SDS011;13046;49.814;9.918;2023-04-24T13:22:06;4.45;;;2.70;;
25049;SDS011;13046;49.814;9.918;2023-04-24T13:24:32;2.95;;;2.75;;
25049;SDS011;13046;49.814;9.918;2023-04-24T13:26:58;2.55;;;2.35;;
25049;SDS011;13046;49.814;9.918;2023-04-24T13:29:25;4.63;;;3.67;;
25049;SDS011;13046;49.814;9.918;2023-04-24T13:31:51;3.15;;;2.78;;
25049;SDS011;13046;49.814;9.918;2023-04-24T13:34:19;4.18;;;3.42;;
25049;SDS011;13046;49.814;9.918;2023-04-24T13:36:46;3.35;;;2.80;;
25049;SDS011;13046;49.814;9.918;2023-04-24T13:39:11;4.80;;;4.40;;
25049;SDS011;13046;49.814;9.918;2023-04-24T13:41:37;4.90;;;3.47;;
25049;SDS011;13046;49.814;9.918;2023-04-24T13:44:03;7.22;;;3.72;;
25049;SDS011;13046;49.814;9.918;2023-04-24T13:46:30;4.40;;;3.33;;
25049;SDS011;13046;49.814;9.918;2023-04-24T13:48:56;4.53;;;3.22;;
25049;SDS011;13046;49.814;9.918;2023-04-24T13:51:22;4.30;;;3.30;;
25049;SDS011;13046;49.814;9.918;2023-04-24T13:53:48;3.70;;;3.28;;
25049;SDS011;13046;49.814;9.918;2023-04-24T13:56:14;3.75;;;3.28;;
25049;SDS011;13046;49.814;9.918;2023-04-24T13:58:40;3.90;;;3.53;;
25049;SDS011;13046;49.814;9.918;2023-04-24T14:01:06;5.28;;;3.65;;
25049;SDS011;13046;49.814;9.918;2023-04-24T14:03:32;3.90;;;2.90;;
25049;SDS011;13046;49.814;9.918;2023-04-24T14:05:58;3.80;;;3.50;;
25049;SDS011;13046;49.814;9.918;2023-04-24T14:08:24;3.88;;;2.47;;
25049;SDS011;13046;49.814;9.918;2023-04-24T14:10:50;3.00;;;2.80;;
25049;SDS011;13046;49.814;9.918;2023-04-24T14:13:16;2.50;;;2.30;;
25049;SDS011;13046;49.814;9.918;2023-04-24T14:15:42;3.75;;;3.15;;
25049;SDS011;13046;49.814;9.918;2023-04-24T14:18:08;4.35;;;3.45;;
25049;SDS011;13046;49.814;9.918;2023-04-24T14:20:33;3.90;;;3.58;;
25049;SDS011;13046;49.814;9.918;2023-04-24T14:23:00;6.53;;;3.63;;
25049;SDS011;13046;49.814;9.918;2023-04-24T14:25:26;3.80;;;3.50;;
25049;SDS011;13046;49.814;9.918;2023-04-24T14:27:52;3.60;;;3.30;;
25049;SDS011;13046;49.814;9.918;2023-04-24T14:30:18;4.47;;;3.20;;
25049;SDS011;13046;49.814;9.918;2023-04-24T14:32:43;3.47;;;3.15;;
25049;SDS011;13046;49.814;9.918;2023-04-24T14:35:09;3.92;;;3.08;;
25049;SDS011;13046;49.814;9.918;2023-04-24T14:37:35;3.78;;;3.38;;
25049;SDS011;13046;49.814;9.918;2023-04-24T14:40:01;4.57;;;3.83;;
25049;SDS011;13046;49.814;9.918;2023-04-24T14:42:29;4.15;;;3.67;;
25049;SDS011;13046;49.814;9.918;2023-04-24T14:44:55;5.45;;;4.05;;
25049;SDS011;13046;49.814;9.918;2023-04-24T14:47:20;4.32;;;3.92;;
25049;SDS011;13046;49.814;9.918;2023-04-24T14:49:47;4.50;;;4.10;;
25049;SDS011;13046;49.814;9.918;2023-04-24T14:52:13;4.80;;;3.25;;
25049;SDS011;13046;49.814;9.918;2023-04-24T14:54:39;3.55;;;3.15;;
25049;SDS011;13046;49.814;9.918;2023-04-24T14:57:05;3.60;;;3.30;;
25049;SDS011;13046;49.814;9.918;2023-04-24T14:59:31;5.03;;;2.90;;
25049;SDS011;13046;49.814;9.918;2023-04-24T15:01:57;4.78;;;2.97;;
25049;SDS011;13046;49.814;9.918;2023-04-24T15:04:26;3.63;;;3.20;;